Time;durP1;ratioP1;P1;durP2;ratioP2;P2;SDS_P1;SDS_P2;PMS_P1;PMS_P2;Temp;Humidity;BMP_temperature;BMP_pressure;BME280_temperature;BME280_humidity;BME280_pressure;Samples;Min_cycle;Max_cycle;Signal;HPM_P1;HPM_P2
2021/06/29 00:01:10;;;;;;;4.57;1.65;;;27.70;37.10;;;;;;5018703;28;20045;-68
2021/06/29 00:03:36;;;;;;;5.88;2.33;;;27.60;37.20;;;;;;5021826;28;20057;-68
2021/06/29 00:06:02;;;;;;;4.68;1.80;;;27.50;36.80;;;;;;5010348;28;20069;-68
2021/06/29 00:08:28;;;;;;;10.35;1.80;;;27.50;37.00;;;;;;5008451;28;20038;-67
2021/06/29 00:10:54;;;;;;;8.98;1.80;;;27.60;37.00;;;;;;5017357;28;20071;-68
2021/06/29 00:13:21;;;;;;;1.88;1.77;;;27.60;36.60;;;;;;5021614;28;20048;-68
2021/06/29 00:15:47;;;;;;;2.47;1.40;;;27.70;36.40;;;;;;5014170;28;20121;-68
2021/06/29 00:18:13;;;;;;;4.10;1.90;;;27.70;35.90;;;;;;5008002;28;20117;-68
2021/06/29 00:20:39;;;;;;;2.88;1.92;;;27.60;36.30;;;;;;5011408;28;20129;-69
2021/06/29 00:23:05;;;;;;;4.25;1.42;;;27.60;36.00;;;;;;5015250;28;20539;-68
2021/06/29 00:25:31;;;;;;;2.67;1.60;;;27.50;35.80;;;;;;5011720;28;20157;-67
2021/06/29 00:27:56;;;;;;;2.40;1.73;;;27.60;35.70;;;;;;5021830;28;20061;-68
2021/06/29 00:30:22;;;;;;;4.53;1.60;;;27.50;36.30;;;;;;5010218;28;20088;-68
2021/06/29 00:32:48;;;;;;;3.03;1.25;;;27.50;35.60;;;;;;5013821;28;20053;-67
2021/06/29 00:35:14;;;;;;;3.25;1.60;;;27.50;35.30;;;;;;5005974;28;20034;-68
2021/06/29 00:37:42;;;;;;;1.63;1.50;;;27.60;35.00;;;;;;5014153;28;20045;-67
2021/06/29 00:40:09;;;;;;;3.20;1.45;;;27.60;34.90;;;;;;5024870;28;20034;-68
2021/06/29 00:42:35;;;;;;;3.78;1.48;;;27.60;34.50;;;;;;5020505;28;20144;-68
2021/06/29 00:45:01;;;;;;;1.80;1.40;;;27.50;34.40;;;;;;5022385;28;20124;-67
2021/06/29 00:47:26;;;;;;;1.63;1.10;;;27.50;34.30;;;;;;5020333;28;20978;-68
2021/06/29 00:49:52;;;;;;;4.63;1.25;;;27.50;34.30;;;;;;5020618;28;20073;-68
2021/06/29 00:52:18;;;;;;;2.03;1.42;;;27.50;34.00;;;;;;5031900;28;20394;-68
2021/06/29 00:54:44;;;;;;;1.67;1.58;;;27.40;34.20;;;;;;5016675;28;20041;-68
2021/06/29 00:57:11;;;;;;;3.10;1.40;;;27.50;34.20;;;;;;5029721;28;20038;-68
2021/06/29 00:59:41;;;;;;;1.50;1.40;;;27.40;34.20;;;;;;5024453;28;20049;-67
2021/06/29 01:02:08;;;;;;;3.60;1.60;;;27.40;34.50;;;;;;5008843;28;20056;-67
2021/06/29 01:04:34;;;;;;;1.48;1.38;;;27.40;34.50;;;;;;5019879;28;20088;-66
2021/06/29 01:07:00;;;;;;;2.20;1.48;;;27.40;34.90;;;;;;5011486;28;20037;-67
2021/06/29 01:09:26;;;;;;;3.70;1.65;;;27.40;34.60;;;;;;5023994;28;20047;-68
2021/06/29 01:11:52;;;;;;;4.22;1.83;;;27.30;34.60;;;;;;5004544;28;20042;-68
2021/06/29 01:14:18;;;;;;;6.43;2.05;;;27.20;34.70;;;;;;5023503;28;20037;-67
2021/06/29 01:16:45;;;;;;;1.15;1.08;;;27.20;35.00;;;;;;5006966;28;20034;-68
2021/06/29 01:19:12;;;;;;;5.63;1.48;;;27.20;35.10;;;;;;5003029;28;20345;-66
2021/06/29 01:21:40;;;;;;;2.70;1.48;;;27.20;34.90;;;;;;5018168;28;20097;-68
2021/06/29 01:24:11;;;;;;;1.98;1.45;;;27.20;34.90;;;;;;5020488;28;20664;-67
2021/06/29 01:26:42;;;;;;;1.45;1.30;;;27.20;35.10;;;;;;5021676;28;20140;-67
2021/06/29 01:29:08;;;;;;;4.53;1.50;;;27.20;35.30;;;;;;5014837;28;20081;-67
2021/06/29 01:31:36;;;;;;;3.28;2.00;;;27.10;35.30;;;;;;5020934;28;20606;-67
2021/06/29 01:34:02;;;;;;;2.80;1.38;;;27.10;35.30;;;;;;5019988;28;20402;-67
2021/06/29 01:36:34;;;;;;;4.13;1.58;;;27.10;35.40;;;;;;5021013;28;20069;-66
2021/06/29 01:39:01;;;;;;;1.58;1.30;;;27.00;35.50;;;;;;5008534;28;20037;-67
2021/06/29 01:41:27;;;;;;;3.50;1.45;;;27.00;35.70;;;;;;5023322;28;20060;-67
2021/06/29 01:43:56;;;;;;;1.95;1.75;;;27.00;35.50;;;;;;5012499;28;20117;-67
2021/06/29 01:46:24;;;;;;;3.33;1.73;;;26.90;35.60;;;;;;5017952;28;20100;-67
2021/06/29 01:48:52;;;;;;;4.95;1.77;;;26.80;35.70;;;;;;5016541;28;20100;-68
2021/06/29 01:51:19;;;;;;;1.58;1.45;;;26.80;36.00;;;;;;5011184;28;20143;-67
2021/06/29 01:53:46;;;;;;;5.85;1.50;;;26.80;36.00;;;;;;5006794;28;20050;-68
2021/06/29 01:56:15;;;;;;;1.73;1.50;;;26.80;36.20;;;;;;5013711;28;20406;-68
2021/06/29 01:58:42;;;;;;;2.50;1.15;;;26.80;35.90;;;;;;5019789;28;20069;-68
2021/06/29 02:01:08;;;;;;;3.33;1.52;;;26.80;36.10;;;;;;5023994;28;20064;-68
2021/06/29 02:03:34;;;;;;;1.60;1.50;;;26.80;36.20;;;;;;5032806;28;20069;-69
2021/06/29 02:06:00;;;;;;;4.53;2.08;;;26.70;36.00;;;;;;5025688;28;20037;-66
2021/06/29 02:08:25;;;;;;;2.13;1.20;;;26.80;36.30;;;;;;5028740;28;20030;-67
2021/06/29 02:10:51;;;;;;;3.22;1.58;;;26.80;36.20;;;;;;5014547;28;20522;-68
2021/06/29 02:13:17;;;;;;;1.50;1.20;;;26.80;36.40;;;;;;5035545;28;20056;-68
2021/06/29 02:15:42;;;;;;;2.60;1.73;;;26.60;36.40;;;;;;5022573;28;20120;-67
2021/06/29 02:18:08;;;;;;;4.45;1.33;;;26.60;36.70;;;;;;5026813;28;20456;-69
2021/06/29 02:20:33;;;;;;;1.58;1.45;;;26.60;37.10;;;;;;5022426;28;20060;-68
2021/06/29 02:22:59;;;;;;;3.47;1.95;;;26.60;36.90;;;;;;5007347;28;20042;-68
2021/06/29 02:25:25;;;;;;;2.17;1.77;;;26.60;36.90;;;;;;5020191;28;20056;-68
2021/06/29 02:27:51;;;;;;;2.70;1.85;;;26.60;36.90;;;;;;5025641;28;20410;-68
2021/06/29 02:30:17;;;;;;;2.95;1.75;;;26.60;37.20;;;;;;5017839;28;20463;-68
2021/06/29 02:32:43;;;;;;;2.28;1.92;;;26.60;37.40;;;;;;5039360;28;20037;-68
2021/06/29 02:35:09;;;;;;;2.22;2.13;;;26.60;37.40;;;;;;5017554;28;20044;-68
2021/06/29 02:37:34;;;;;;;5.55;1.95;;;26.60;37.60;;;;;;5020525;28;20041;-68
2021/06/29 02:40:00;;;;;;;2.90;2.22;;;26.50;37.50;;;;;;5014067;28;20418;-68
2021/06/29 02:42:26;;;;;;;2.78;1.80;;;26.40;37.60;;;;;;5028160;28;20034;-68
2021/06/29 02:44:51;;;;;;;5.60;2.22;;;26.50;37.80;;;;;;5016094;28;20061;-68
2021/06/29 02:47:17;;;;;;;2.83;1.90;;;26.40;37.90;;;;;;5004781;28;20069;-68
2021/06/29 02:49:43;;;;;;;4.93;2.22;;;26.40;38.10;;;;;;5020486;28;20153;-68
2021/06/29 02:52:09;;;;;;;3.95;2.00;;;26.40;38.00;;;;;;5017800;28;20116;-68
2021/06/29 02:54:35;;;;;;;4.45;2.15;;;26.40;38.10;;;;;;5021474;28;20044;-68
2021/06/29 02:57:01;;;;;;;4.60;1.95;;;26.30;38.10;;;;;;5014791;28;20049;-68
2021/06/29 02:59:27;;;;;;;3.15;2.03;;;26.40;38.40;;;;;;5020720;28;20072;-68
2021/06/29 03:01:52;;;;;;;2.13;1.98;;;26.30;38.50;;;;;;5019542;28;20037;-68
2021/06/29 03:04:18;;;;;;;4.22;1.70;;;26.30;38.70;;;;;;5014481;28;20037;-68
2021/06/29 03:06:43;;;;;;;3.90;1.83;;;26.30;39.00;;;;;;5012310;28;20038;-68
2021/06/29 03:09:09;;;;;;;3.33;1.85;;;26.30;39.00;;;;;;5007940;28;20480;-68
2021/06/29 03:11:36;;;;;;;2.95;1.60;;;26.30;38.90;;;;;;5024232;28;20069;-67
2021/06/29 03:14:02;;;;;;;5.45;2.13;;;26.30;39.30;;;;;;5020387;28;20033;-68
2021/06/29 03:16:28;;;;;;;3.40;1.55;;;26.30;39.20;;;;;;5007111;28;20479;-69
2021/06/29 03:18:53;;;;;;;3.88;2.00;;;26.30;39.50;;;;;;5022412;28;20034;-68
2021/06/29 03:21:19;;;;;;;2.58;1.77;;;26.30;39.40;;;;;;5018082;28;20033;-68
2021/06/29 03:23:45;;;;;;;3.38;1.77;;;26.30;39.50;;;;;;5015246;28;20480;-67
2021/06/29 03:26:10;;;;;;;2.13;1.80;;;26.30;39.80;;;;;;5015577;28;20184;-68
2021/06/29 03:28:36;;;;;;;3.88;2.13;;;26.20;40.00;;;;;;5012822;28;20454;-67
2021/06/29 03:31:02;;;;;;;2.33;1.98;;;26.20;40.00;;;;;;5023317;28;20524;-67
2021/06/29 03:33:27;;;;;;;2.30;1.63;;;26.20;40.20;;;;;;5015793;28;20395;-64
2021/06/29 03:35:53;;;;;;;6.00;2.85;;;26.00;40.30;;;;;;5013940;28;20053;-69
2021/06/29 03:38:18;;;;;;;4.97;1.95;;;26.10;40.40;;;;;;5012782;28;20037;-68
2021/06/29 03:40:44;;;;;;;3.33;1.98;;;26.00;40.60;;;;;;5022577;28;20495;-68
2021/06/29 03:43:10;;;;;;;5.22;2.75;;;26.00;40.30;;;;;;5012509;28;20438;-69
2021/06/29 03:45:36;;;;;;;2.28;2.00;;;26.10;40.50;;;;;;5010522;28;20137;-69
2021/06/29 03:48:01;;;;;;;3.42;1.98;;;26.20;40.40;;;;;;5018081;28;20033;-68
2021/06/29 03:50:27;;;;;;;5.47;2.45;;;26.20;40.40;;;;;;5009420;28;20045;-69
2021/06/29 03:52:53;;;;;;;4.75;2.47;;;26.30;40.50;;;;;;5019041;28;20475;-69
2021/06/29 03:55:19;;;;;;;3.45;2.42;;;26.20;40.90;;;;;;5024752;28;20045;-69
2021/06/29 03:57:45;;;;;;;5.95;2.22;;;26.00;40.90;;;;;;5031917;28;20122;-69
2021/06/29 04:00:12;;;;;;;3.35;2.50;;;26.10;40.90;;;;;;5012863;28;20126;-68
2021/06/29 04:02:37;;;;;;;2.90;2.63;;;26.10;41.10;;;;;;5019259;28;20049;-69
2021/06/29 04:05:07;;;;;;;3.25;2.10;;;26.10;41.70;;;;;;5015391;28;20042;-68
2021/06/29 04:07:34;;;;;;;5.70;2.65;;;26.20;41.30;;;;;;5034530;28;20121;-67
2021/06/29 04:09:59;;;;;;;4.43;2.38;;;26.10;41.40;;;;;;5014095;28;20040;-68
2021/06/29 04:12:26;;;;;;;3.88;2.83;;;26.10;41.10;;;;;;5005777;28;20655;-68
2021/06/29 04:14:53;;;;;;;3.38;2.90;;;26.00;41.90;;;;;;5005464;28;20038;-67
2021/06/29 04:17:18;;;;;;;3.80;2.60;;;26.00;41.60;;;;;;5020110;28;20041;-67
2021/06/29 04:19:44;;;;;;;8.02;3.03;;;26.00;41.60;;;;;;5016516;28;20037;-67
2021/06/29 04:22:10;;;;;;;3.17;2.88;;;26.00;41.70;;;;;;5007990;28;20045;-67
2021/06/29 04:24:36;;;;;;;2.88;2.38;;;26.00;41.60;;;;;;5010096;28;20100;-67
2021/06/29 04:27:02;;;;;;;4.95;3.05;;;26.00;41.60;;;;;;5019329;28;20136;-68
2021/06/29 04:29:28;;;;;;;6.07;3.13;;;26.00;41.60;;;;;;5012836;28;20147;-64
2021/06/29 04:31:54;;;;;;;3.38;2.28;;;25.90;41.90;;;;;;5017375;28;20049;-68
2021/06/29 04:34:19;;;;;;;5.78;3.58;;;25.90;42.30;;;;;;5019183;28;20055;-68
2021/06/29 04:36:45;;;;;;;6.18;3.00;;;25.90;42.00;;;;;;5017141;28;20037;-68
2021/06/29 04:39:11;;;;;;;6.50;3.03;;;26.00;42.10;;;;;;5020680;28;20049;-68
2021/06/29 04:41:37;;;;;;;3.20;2.78;;;26.20;42.40;;;;;;5016596;28;20045;-68
2021/06/29 04:44:03;;;;;;;2.83;2.63;;;26.10;42.10;;;;;;5015482;28;20042;-62
2021/06/29 04:46:30;;;;;;;20.60;5.15;;;26.20;42.00;;;;;;5016651;28;20040;-67
2021/06/29 04:48:56;;;;;;;6.93;3.38;;;26.30;42.00;;;;;;5017184;28;20042;-69
2021/06/29 04:51:21;;;;;;;11.27;3.47;;;26.30;42.00;;;;;;5013976;28;20037;-69
2021/06/29 04:53:47;;;;;;;4.90;2.90;;;26.30;41.80;;;;;;5019741;28;20040;-68
2021/06/29 04:56:18;;;;;;;7.55;3.13;;;26.30;42.30;;;;;;5015704;28;20045;-69
2021/06/29 04:58:52;;;;;;;5.00;2.83;;;26.30;42.50;;;;;;5018748;28;20117;-69
2021/06/29 05:01:18;;;;;;;3.35;2.33;;;26.30;43.00;;;;;;5012824;28;20037;-69
2021/06/29 05:04:39;;;;;;;4.22;3.00;;;26.30;42.80;;;;;;5005367;28;20088;-67
2021/06/29 05:07:05;;;;;;;2.80;2.60;;;26.30;43.50;;;;;;4955093;28;20095;-67
2021/06/29 05:09:30;;;;;;;4.65;2.70;;;26.30;42.90;;;;;;5005666;28;20038;-68
2021/06/29 05:11:56;;;;;;;5.95;3.00;;;26.30;42.90;;;;;;5034971;28;20087;-69
2021/06/29 05:14:21;;;;;;;6.22;2.72;;;26.20;43.30;;;;;;5020566;28;20049;-68
2021/06/29 05:16:47;;;;;;;3.85;3.00;;;26.20;43.40;;;;;;5018789;28;20037;-69
2021/06/29 05:19:13;;;;;;;4.07;3.33;;;26.20;43.40;;;;;;5019627;28;20041;-69
2021/06/29 05:21:38;;;;;;;5.15;3.42;;;26.20;43.50;;;;;;5003406;28;20044;-69
2021/06/29 05:24:04;;;;;;;4.53;3.60;;;26.20;43.50;;;;;;5009214;28;20084;-69
2021/06/29 05:26:30;;;;;;;7.32;3.50;;;26.30;43.70;;;;;;5009876;28;20406;-68
2021/06/29 05:28:55;;;;;;;4.57;3.42;;;26.30;43.60;;;;;;5011042;28;20036;-69
2021/06/29 05:31:21;;;;;;;7.63;3.45;;;26.20;43.50;;;;;;5017779;28;20041;-68
2021/06/29 05:33:47;;;;;;;5.32;3.55;;;26.30;43.90;;;;;;5017198;28;20042;-68
2021/06/29 05:36:12;;;;;;;7.13;3.53;;;26.20;44.00;;;;;;5014997;28;20053;-69
2021/06/29 05:38:38;;;;;;;4.70;3.90;;;26.30;43.50;;;;;;5011969;28;20037;-67
2021/06/29 05:41:03;;;;;;;5.85;3.60;;;26.30;43.40;;;;;;5011005;28;20183;-67
2021/06/29 05:43:29;;;;;;;6.13;3.05;;;26.30;43.10;;;;;;5014638;28;20038;-65
2021/06/29 05:45:55;;;;;;;4.93;4.22;;;26.40;43.30;;;;;;5016036;28;20045;-68
2021/06/29 05:48:20;;;;;;;7.45;3.78;;;26.30;43.40;;;;;;5012442;28;20483;-68
2021/06/29 05:50:46;;;;;;;8.75;4.22;;;26.40;43.30;;;;;;5014263;28;20128;-68
2021/06/29 05:53:13;;;;;;;5.82;3.88;;;26.50;43.20;;;;;;5004133;28;20165;-68
2021/06/29 05:55:38;;;;;;;3.33;3.03;;;26.40;43.10;;;;;;5013220;28;20050;-68
2021/06/29 05:58:04;;;;;;;6.35;4.10;;;26.40;43.40;;;;;;5025959;28;20058;-66
2021/06/29 06:00:29;;;;;;;4.70;3.72;;;26.40;42.90;;;;;;5012312;28;20041;-66
2021/06/29 06:02:55;;;;;;;3.83;3.40;;;26.50;43.10;;;;;;5013537;28;20119;-68
2021/06/29 06:05:21;;;;;;;4.50;3.90;;;26.40;42.80;;;;;;5020627;28;20043;-68
2021/06/29 06:07:46;;;;;;;6.00;3.55;;;26.60;42.90;;;;;;5021131;28;20049;-68
2021/06/29 06:10:14;;;;;;;4.72;3.45;;;26.60;43.00;;;;;;5018341;28;20033;-67
2021/06/29 06:12:39;;;;;;;3.72;3.05;;;26.60;43.10;;;;;;5019935;28;20041;-68
2021/06/29 06:15:06;;;;;;;6.50;3.40;;;26.70;42.70;;;;;;5010926;28;20449;-68
2021/06/29 06:17:36;;;;;;;4.88;3.92;;;26.80;42.80;;;;;;5014490;28;20120;-67
2021/06/29 06:20:04;;;;;;;4.65;3.40;;;26.70;42.60;;;;;;5010927;28;20034;-69
2021/06/29 06:22:29;;;;;;;5.05;3.20;;;26.70;42.70;;;;;;5000418;28;20045;-64
2021/06/29 06:24:55;;;;;;;8.30;3.80;;;26.70;42.50;;;;;;5016351;28;20053;-69
2021/06/29 06:27:20;;;;;;;4.00;3.47;;;26.80;42.50;;;;;;5005954;28;20065;-69
2021/06/29 06:29:46;;;;;;;3.97;3.08;;;26.80;42.60;;;;;;5006260;28;20037;-70
2021/06/29 06:32:12;;;;;;;8.48;3.85;;;26.80;42.60;;;;;;5023435;28;20041;-69
2021/06/29 06:34:38;;;;;;;8.57;3.40;;;26.90;42.50;;;;;;5003690;28;20057;-69
2021/06/29 06:37:04;;;;;;;6.15;4.15;;;26.90;42.10;;;;;;5007905;28;20030;-69
2021/06/29 06:39:29;;;;;;;6.40;4.00;;;27.00;42.00;;;;;;5015420;28;20037;-69
2021/06/29 06:41:55;;;;;;;5.68;3.45;;;27.00;42.00;;;;;;5023706;28;20494;-69
2021/06/29 06:44:20;;;;;;;5.28;3.53;;;27.10;42.00;;;;;;5014180;28;20046;-69
2021/06/29 06:46:46;;;;;;;7.10;3.47;;;27.00;41.50;;;;;;5017926;28;20390;-69
2021/06/29 06:49:12;;;;;;;7.03;4.07;;;27.10;41.70;;;;;;5016501;28;20036;-68
2021/06/29 06:51:37;;;;;;;5.03;4.28;;;27.10;41.50;;;;;;5021102;28;20121;-69
2021/06/29 06:54:03;;;;;;;6.38;3.90;;;27.20;40.90;;;;;;5023339;28;20056;-69
2021/06/29 06:56:29;;;;;;;4.55;3.95;;;26.90;41.30;;;;;;5022584;28;20504;-69
2021/06/29 06:58:55;;;;;;;4.40;4.00;;;27.00;41.30;;;;;;5020967;28;20057;-70
2021/06/29 07:01:20;;;;;;;4.10;3.05;;;27.00;41.40;;;;;;5012362;28;20120;-69
2021/06/29 07:03:46;;;;;;;6.05;3.85;;;27.20;41.30;;;;;;5021784;28;20168;-70
2021/06/29 07:06:13;;;;;;;6.70;3.90;;;27.30;40.60;;;;;;5013917;28;20046;-69
2021/06/29 07:08:39;;;;;;;8.18;3.63;;;27.30;40.90;;;;;;5016122;28;20069;-70
2021/06/29 07:11:06;;;;;;;6.93;3.75;;;27.40;40.70;;;;;;5015884;28;20403;-69
2021/06/29 07:13:32;;;;;;;7.03;3.75;;;27.40;40.30;;;;;;5019360;28;20055;-69
2021/06/29 07:15:57;;;;;;;6.68;3.50;;;27.40;40.50;;;;;;5012206;28;20042;-69
2021/06/29 07:18:23;;;;;;;4.78;3.97;;;27.40;40.30;;;;;;5011612;28;20045;-69
2021/06/29 07:20:49;;;;;;;6.47;3.85;;;27.30;40.00;;;;;;5017400;28;20050;-69
2021/06/29 07:23:14;;;;;;;4.13;2.85;;;27.30;39.80;;;;;;5023558;28;20118;-69
2021/06/29 07:25:41;;;;;;;5.25;2.78;;;27.50;39.40;;;;;;5017002;28;20054;-69
2021/06/29 07:28:07;;;;;;;4.65;3.00;;;27.50;39.50;;;;;;4998461;28;20055;-69
2021/06/29 07:30:34;;;;;;;4.10;2.63;;;27.60;39.60;;;;;;5022425;28;20041;-68
2021/06/29 07:33:00;;;;;;;6.28;3.60;;;27.70;39.30;;;;;;5018068;28;20044;-69
2021/06/29 07:35:28;;;;;;;7.22;3.85;;;27.80;39.20;;;;;;5038220;28;20034;-68
2021/06/29 07:37:54;;;;;;;4.53;3.00;;;27.80;39.10;;;;;;5015545;28;20053;-68
2021/06/29 07:40:19;;;;;;;9.85;3.55;;;27.90;38.80;;;;;;5014410;28;20057;-68
2021/06/29 07:42:45;;;;;;;5.97;3.70;;;28.00;38.60;;;;;;5011473;28;20427;-68
2021/06/29 07:45:12;;;;;;;3.80;3.10;;;28.10;38.20;;;;;;5005333;28;20045;-68
2021/06/29 07:47:39;;;;;;;6.50;3.20;;;28.20;37.80;;;;;;5007376;28;20097;-68
2021/06/29 07:50:08;;;;;;;11.57;4.55;;;28.10;37.70;;;;;;5017007;28;20064;-68
2021/06/29 07:52:35;;;;;;;10.52;3.60;;;28.20;37.30;;;;;;5010427;28;20070;-67
2021/06/29 07:55:06;;;;;;;7.25;3.45;;;28.10;37.50;;;;;;5022558;28;20041;-67
2021/06/29 07:57:32;;;;;;;6.57;3.17;;;28.20;37.30;;;;;;5020652;28;20120;-67
2021/06/29 07:59:57;;;;;;;8.82;3.17;;;28.10;36.70;;;;;;5023912;28;20033;-68
2021/06/29 08:02:23;;;;;;;5.90;3.65;;;28.00;36.50;;;;;;5020609;28;21622;-70
2021/06/29 08:04:49;;;;;;;7.35;2.92;;;28.20;36.10;;;;;;5021385;28;20068;-69
2021/06/29 08:07:15;;;;;;;7.15;3.00;;;28.20;35.80;;;;;;5023425;28;20067;-69
2021/06/29 08:09:41;;;;;;;4.63;2.95;;;28.40;35.80;;;;;;5012961;28;20041;-68
2021/06/29 08:12:07;;;;;;;7.90;3.30;;;28.30;36.70;;;;;;5014455;28;20384;-70
2021/06/29 08:14:33;;;;;;;5.53;3.08;;;28.30;37.00;;;;;;5019979;28;20049;-68
2021/06/29 08:17:01;;;;;;;5.90;2.80;;;28.30;37.40;;;;;;5022734;28;20052;-70
2021/06/29 08:19:27;;;;;;;6.30;2.70;;;28.30;37.30;;;;;;5008387;28;20034;-72
2021/06/29 08:21:52;;;;;;;6.65;3.33;;;28.40;37.30;;;;;;5022378;28;20144;-75
2021/06/29 08:24:18;;;;;;;5.57;3.08;;;28.40;37.20;;;;;;5020594;28;20042;-75
2021/06/29 08:26:44;;;;;;;5.63;3.28;;;28.50;37.80;;;;;;5018764;28;20054;-69
2021/06/29 08:29:09;;;;;;;6.70;3.42;;;28.60;37.40;;;;;;5016895;28;20073;-69
2021/06/29 08:31:37;;;;;;;3.85;2.72;;;28.60;37.10;;;;;;5021367;28;20491;-68
2021/06/29 08:34:03;;;;;;;4.80;3.10;;;28.60;37.00;;;;;;5019456;28;20037;-68
2021/06/29 08:36:30;;;;;;;6.00;2.80;;;28.50;36.80;;;;;;5015192;28;20046;-69
2021/06/29 08:38:56;;;;;;;6.25;2.70;;;28.60;37.10;;;;;;5019250;28;20438;-69
2021/06/29 08:41:22;;;;;;;7.32;2.80;;;28.70;36.80;;;;;;5019403;28;20429;-68
2021/06/29 08:43:48;;;;;;;5.93;3.30;;;28.60;36.80;;;;;;5021135;28;20069;-68
2021/06/29 08:46:13;;;;;;;7.93;3.40;;;28.70;36.70;;;;;;5014448;28;20049;-68
2021/06/29 08:48:39;;;;;;;5.18;3.50;;;28.70;36.50;;;;;;5019415;28;20056;-68
2021/06/29 08:51:05;;;;;;;9.35;3.22;;;28.80;36.50;;;;;;5014903;28;20427;-67
2021/06/29 08:53:32;;;;;;;10.90;3.20;;;28.70;36.50;;;;;;5020195;28;20042;-61
2021/06/29 08:55:58;;;;;;;3.38;2.88;;;28.80;36.30;;;;;;5019726;28;20029;-67
2021/06/29 08:58:24;;;;;;;5.50;2.80;;;28.90;36.30;;;;;;5015211;28;20466;-67
2021/06/29 09:00:51;;;;;;;11.50;3.33;;;29.00;36.60;;;;;;5011311;28;20092;-67
2021/06/29 09:03:17;;;;;;;6.50;3.50;;;28.90;36.00;;;;;;5009659;28;20102;-67
2021/06/29 09:05:50;;;;;;;8.48;2.70;;;29.00;35.80;;;;;;5016499;28;20471;-67
2021/06/29 09:08:18;;;;;;;5.53;3.35;;;29.10;35.80;;;;;;5019300;28;20120;-67
2021/06/29 09:11:05;;;;;;;4.82;3.25;;;29.00;35.90;;;;;;5030569;28;20049;-67
2021/06/29 09:13:31;;;;;;;5.20;3.13;;;29.10;36.20;;;;;;5016700;28;20095;-65
2021/06/29 09:15:58;;;;;;;6.43;3.72;;;29.10;35.80;;;;;;5009206;28;20030;-67
2021/06/29 09:18:25;;;;;;;4.82;3.03;;;29.10;35.60;;;;;;5016235;28;20053;-67
2021/06/29 09:20:54;;;;;;;4.25;2.95;;;29.30;35.60;;;;;;5013130;28;20048;-67
2021/06/29 09:23:33;;;;;;;6.78;3.65;;;29.30;35.60;;;;;;5019361;28;20041;-67
2021/06/29 09:26:05;;;;;;;5.20;3.20;;;29.50;35.50;;;;;;5015098;28;20041;-67
2021/06/29 09:28:35;;;;;;;4.63;3.03;;;29.50;35.20;;;;;;5018418;28;20403;-67
2021/06/29 09:31:03;;;;;;;8.68;3.10;;;29.40;35.20;;;;;;5011872;28;20140;-67
2021/06/29 09:33:36;;;;;;;5.00;3.25;;;29.10;35.60;;;;;;5036800;28;20081;-67
2021/06/29 09:36:12;;;;;;;9.23;3.78;;;29.30;35.90;;;;;;5017357;28;20048;-65
2021/06/29 09:38:39;;;;;;;5.47;2.95;;;29.40;35.10;;;;;;5021128;28;20436;-67
2021/06/29 09:41:09;;;;;;;5.32;3.60;;;29.30;35.00;;;;;;5018991;28;20172;-67
2021/06/29 09:43:43;;;;;;;7.32;3.30;;;29.50;35.20;;;;;;5034886;28;20038;-68
2021/06/29 09:46:14;;;;;;;5.30;3.70;;;29.50;35.20;;;;;;5009542;28;20049;-69
2021/06/29 09:48:46;;;;;;;3.97;3.30;;;29.60;35.60;;;;;;5013201;28;20121;-69
2021/06/29 09:51:21;;;;;;;6.55;2.92;;;29.60;35.30;;;;;;5020246;28;20045;-68
2021/06/29 09:53:52;;;;;;;4.20;3.20;;;29.80;34.90;;;;;;5012264;28;20049;-69
2021/06/29 09:56:18;;;;;;;5.03;3.13;;;29.70;35.20;;;;;;5005461;28;20499;-68
2021/06/29 09:58:49;;;;;;;4.47;3.03;;;29.80;35.50;;;;;;5014399;28;20091;-68
2021/06/29 10:01:16;;;;;;;5.68;3.13;;;29.80;35.10;;;;;;5017191;28;20042;-69
2021/06/29 10:03:43;;;;;;;5.93;2.75;;;29.90;34.90;;;;;;5009394;28;20041;-70
2021/06/29 10:06:11;;;;;;;3.90;3.50;;;29.90;35.30;;;;;;5008249;28;20333;-69
2021/06/29 10:08:39;;;;;;;9.05;3.25;;;29.90;34.90;;;;;;5016350;28;20044;-69
2021/06/29 10:11:07;;;;;;;9.65;3.15;;;30.10;34.80;;;;;;5017137;28;20098;-67
2021/06/29 10:13:37;;;;;;;5.10;2.92;;;30.10;34.30;;;;;;5008957;28;20162;-66
2021/06/29 10:16:06;;;;;;;6.40;3.30;;;30.20;34.50;;;;;;5023723;28;20034;-68
2021/06/29 10:18:34;;;;;;;5.45;3.22;;;30.30;34.20;;;;;;5016954;28;20128;-66
2021/06/29 10:21:13;;;;;;;7.05;3.50;;;30.40;33.70;;;;;;5017647;28;20038;-68
2021/06/29 10:23:40;;;;;;;7.38;3.10;;;30.40;33.80;;;;;;4997411;28;20041;-68
2021/06/29 10:26:07;;;;;;;3.60;2.95;;;30.50;33.30;;;;;;5025356;28;20136;-68
2021/06/29 10:28:34;;;;;;;5.03;4.25;;;30.50;33.60;;;;;;5020879;28;21510;-67
2021/06/29 10:31:01;;;;;;;7.93;3.80;;;30.70;33.20;;;;;;5016985;28;20038;-68
2021/06/29 10:33:27;;;;;;;5.43;3.17;;;30.80;32.90;;;;;;5020732;28;20044;-69
2021/06/29 10:35:54;;;;;;;4.85;2.92;;;30.80;33.00;;;;;;5021749;28;20040;-69
2021/06/29 10:38:20;;;;;;;10.68;3.90;;;30.90;32.00;;;;;;5038493;28;20053;-69
2021/06/29 10:40:51;;;;;;;6.25;3.40;;;31.00;32.10;;;;;;5008996;28;20038;-69
2021/06/29 10:43:17;;;;;;;5.75;3.30;;;31.10;31.30;;;;;;5020072;28;20064;-69
2021/06/29 10:45:42;;;;;;;5.00;3.42;;;31.00;31.60;;;;;;5034424;28;20494;-69
2021/06/29 10:48:18;;;;;;;3.60;3.30;;;31.10;31.20;;;;;;5023535;28;20059;-70
2021/06/29 10:50:45;;;;;;;8.77;3.70;;;31.10;31.10;;;;;;5014838;28;20036;-70
2021/06/29 10:53:46;;;;;;;5.88;3.10;;;31.50;31.00;;;;;;5023035;28;20491;-71
2021/06/29 10:56:16;;;;;;;7.32;3.03;;;31.90;29.60;;;;;;4997457;28;20056;-70
2021/06/29 10:58:50;;;;;;;6.35;3.72;;;33.00;29.10;;;;;;5011380;28;20065;-70
2021/06/29 11:01:34;;;;;;;7.65;3.60;;;34.80;34.60;;;;;;5015677;28;20076;-70
2021/06/29 11:04:03;;;;;;;3.40;2.78;;;36.70;28.90;;;;;;5022798;28;20079;-69
2021/06/29 11:06:45;;;;;;;7.03;3.22;;;37.60;25.00;;;;;;5018206;28;20058;-70
2021/06/29 11:09:15;;;;;;;4.95;2.60;;;38.70;28.90;;;;;;4989888;28;20061;-70
2021/06/29 11:11:41;;;;;;;4.32;2.78;;;39.00;23.50;;;;;;5016980;28;20042;-70
2021/06/29 11:14:28;;;;;;;4.05;2.58;;;39.70;21.80;;;;;;5037131;28;20056;-69
2021/06/29 11:16:56;;;;;;;4.90;2.95;;;38.50;21.00;;;;;;5016186;28;20044;-70
2021/06/29 11:19:57;;;;;;;5.53;2.85;;;37.70;22.10;;;;;;5013536;28;20044;-70
2021/06/29 11:22:58;;;;;;;6.88;3.10;;;37.60;22.30;;;;;;4998723;28;20033;-69
2021/06/29 11:25:46;;;;;;;4.75;2.88;;;36.50;23.70;;;;;;4967834;28;20049;-69
2021/06/29 11:28:24;;;;;;;3.67;2.65;;;36.20;23.30;;;;;;4984175;28;20049;-70
2021/06/29 11:31:20;;;;;;;4.60;2.92;;;36.00;23.10;;;;;;5016351;28;20037;-71
2021/06/29 11:33:57;;;;;;;4.18;3.03;;;36.90;23.00;;;;;;5002397;28;20119;-70
2021/06/29 11:36:25;;;;;;;5.07;3.72;;;37.50;23.30;;;;;;5016792;28;20041;-70
2021/06/29 11:38:54;;;;;;;4.72;3.00;;;37.00;25.00;;;;;;5024781;28;20037;-70
2021/06/29 11:41:28;;;;;;;5.00;3.30;;;36.40;26.60;;;;;;5018011;28;20026;-69
2021/06/29 11:43:57;;;;;;;92.78;19.35;;;36.10;25.70;;;;;;5023552;28;20033;-70
2021/06/29 11:46:53;;;;;;;8.52;3.13;;;36.10;26.50;;;;;;5019111;28;20046;-71
2021/06/29 11:49:32;;;;;;;6.65;3.15;;;36.30;25.60;;;;;;4979370;28;20040;-70
2021/06/29 11:52:11;;;;;;;5.57;3.13;;;36.50;25.10;;;;;;5027040;28;20074;-71
2021/06/29 11:55:10;;;;;;;5.95;4.15;;;36.80;25.10;;;;;;5016431;28;20409;-70
2021/06/29 11:57:42;;;;;;;6.13;3.85;;;37.10;25.20;;;;;;5019003;28;20107;-70
2021/06/29 12:00:28;;;;;;;7.63;3.90;;;36.90;24.70;;;;;;5023257;28;20552;-69
2021/06/29 12:03:16;;;;;;;4.18;3.30;;;37.10;24.70;;;;;;5016640;28;20029;-71
2021/06/29 12:05:42;;;;;;;3.88;3.45;;;37.80;25.20;;;;;;4987770;28;20507;-71
2021/06/29 12:08:10;;;;;;;5.03;3.20;;;38.70;24.10;;;;;;5018021;28;20045;-71
2021/06/29 12:10:37;;;;;;;6.68;3.45;;;39.00;24.40;;;;;;5019179;28;20069;-71
2021/06/29 12:13:06;;;;;;;3.63;3.38;;;39.70;21.50;;;;;;5018174;28;20037;-66
2021/06/29 12:15:39;;;;;;;4.80;3.40;;;40.10;20.60;;;;;;5018504;28;20033;-71
2021/06/29 12:18:22;;;;;;;5.65;3.30;;;40.10;21.20;;;;;;5006318;28;20053;-71
2021/06/29 12:20:52;;;;;;;3.30;3.00;;;40.00;20.10;;;;;;5016504;28;20119;-71
2021/06/29 12:23:31;;;;;;;3.35;2.97;;;39.40;20.40;;;;;;5013449;28;20048;-70
2021/06/29 12:26:01;;;;;;;4.20;3.78;;;40.10;20.20;;;;;;5013351;28;20061;-70
2021/06/29 12:28:29;;;;;;;4.07;3.65;;;40.40;20.50;;;;;;5010890;28;20060;-69
2021/06/29 12:31:00;;;;;;;4.03;3.38;;;39.50;20.80;;;;;;5013770;28;20037;-70
2021/06/29 12:33:30;;;;;;;4.82;3.15;;;37.90;22.20;;;;;;5017968;28;20566;-70
2021/06/29 12:36:01;;;;;;;7.07;3.40;;;38.60;21.60;;;;;;5011736;28;20464;-69
2021/06/29 12:38:29;;;;;;;3.50;3.20;;;38.90;21.30;;;;;;5016060;28;20069;-69
2021/06/29 12:40:59;;;;;;;8.32;3.92;;;40.00;20.70;;;;;;5015985;28;20049;-69
2021/06/29 12:43:29;;;;;;;4.55;3.60;;;40.90;20.50;;;;;;5018794;28;20132;-70
2021/06/29 12:45:56;;;;;;;5.35;3.60;;;41.80;19.60;;;;;;5023828;28;20480;-69
2021/06/29 12:48:24;;;;;;;7.10;4.20;;;43.20;18.30;;;;;;5022982;28;20065;-69
2021/06/29 12:50:59;;;;;;;4.55;3.65;;;43.30;18.60;;;;;;5016993;28;20046;-70